sensor_id;sensor_type;location;lat;lon;timestamp;P1;durP1;ratioP1;P2;durP2;ratioP2
3349;SDS011;1688;51.000;13.684;2022-07-12T00:02:08;2.13;;;1.03;;
3349;SDS011;1688;51.000;13.684;2022-07-12T00:04:33;1.20;;;1.07;;
3349;SDS011;1688;51.000;13.684;2022-07-12T00:06:59;1.07;;;0.97;;
3349;SDS011;1688;51.000;13.684;2022-07-12T00:09:25;1.17;;;1.07;;
3349;SDS011;1688;51.000;13.684;2022-07-12T00:11:50;0.90;;;0.90;;
3349;SDS011;1688;51.000;13.684;2022-07-12T00:14:16;1.07;;;1.00;;
3349;SDS011;1688;51.000;13.684;2022-07-12T00:16:42;1.80;;;1.13;;
3349;SDS011;1688;51.000;13.684;2022-07-12T00:19:08;7.03;;;0.93;;
3349;SDS011;1688;51.000;13.684;2022-07-12T00:21:34;1.10;;;0.90;;
3349;SDS011;1688;51.000;13.684;2022-07-12T00:24:00;1.47;;;1.00;;
3349;SDS011;1688;51.000;13.684;2022-07-12T00:26:26;1.00;;;0.90;;
3349;SDS011;1688;51.000;13.684;2022-07-12T00:28:52;1.07;;;0.90;;
3349;SDS011;1688;51.000;13.684;2022-07-12T00:31:17;3.43;;;1.20;;
3349;SDS011;1688;51.000;13.684;2022-07-12T00:33:43;1.20;;;1.10;;
3349;SDS011;1688;51.000;13.684;2022-07-12T00:36:09;1.10;;;0.90;;
3349;SDS011;1688;51.000;13.684;2022-07-12T00:38:35;1.03;;;0.93;;
3349;SDS011;1688;51.000;13.684;2022-07-12T00:41:01;1.00;;;0.90;;
3349;SDS011;1688;51.000;13.684;2022-07-12T00:43:27;0.93;;;0.93;;
3349;SDS011;1688;51.000;13.684;2022-07-12T00:45:53;1.43;;;0.90;;
3349;SDS011;1688;51.000;13.684;2022-07-12T00:48:18;1.77;;;1.60;;
3349;SDS011;1688;51.000;13.684;2022-07-12T00:50:45;1.47;;;1.30;;
3349;SDS011;1688;51.000;13.684;2022-07-12T00:53:12;1.30;;;1.20;;
3349;SDS011;1688;51.000;13.684;2022-07-12T00:55:40;2.70;;;1.17;;
3349;SDS011;1688;51.000;13.684;2022-07-12T00:58:06;2.23;;;1.60;;
3349;SDS011;1688;51.000;13.684;2022-07-12T01:00:32;1.83;;;1.73;;
3349;SDS011;1688;51.000;13.684;2022-07-12T01:02:58;2.53;;;1.87;;
3349;SDS011;1688;51.000;13.684;2022-07-12T01:05:27;1.40;;;1.20;;
3349;SDS011;1688;51.000;13.684;2022-07-12T01:07:54;1.93;;;1.77;;
3349;SDS011;1688;51.000;13.684;2022-07-12T01:10:20;1.80;;;1.33;;
3349;SDS011;1688;51.000;13.684;2022-07-12T01:12:46;1.33;;;1.20;;
3349;SDS011;1688;51.000;13.684;2022-07-12T01:15:13;4.10;;;1.47;;
3349;SDS011;1688;51.000;13.684;2022-07-12T01:17:39;1.20;;;1.10;;
3349;SDS011;1688;51.000;13.684;2022-07-12T01:20:06;1.67;;;1.20;;
3349;SDS011;1688;51.000;13.684;2022-07-12T01:22:34;1.20;;;1.00;;
3349;SDS011;1688;51.000;13.684;2022-07-12T01:25:01;1.80;;;1.70;;
3349;SDS011;1688;51.000;13.684;2022-07-12T01:27:35;1.30;;;1.20;;
3349;SDS011;1688;51.000;13.684;2022-07-12T01:30:03;1.80;;;1.70;;
3349;SDS011;1688;51.000;13.684;2022-07-12T01:32:29;2.43;;;1.47;;
3349;SDS011;1688;51.000;13.684;2022-07-12T01:34:56;2.17;;;1.50;;
3349;SDS011;1688;51.000;13.684;2022-07-12T01:37:23;1.80;;;1.70;;
3349;SDS011;1688;51.000;13.684;2022-07-12T01:39:51;1.70;;;1.60;;
3349;SDS011;1688;51.000;13.684;2022-07-12T01:42:22;4.00;;;2.30;;
3349;SDS011;1688;51.000;13.684;2022-07-12T01:44:49;3.90;;;2.40;;
3349;SDS011;1688;51.000;13.684;2022-07-12T01:47:17;2.93;;;2.03;;
3349;SDS011;1688;51.000;13.684;2022-07-12T01:49:43;3.60;;;1.80;;
3349;SDS011;1688;51.000;13.684;2022-07-12T01:52:08;1.93;;;1.40;;
3349;SDS011;1688;51.000;13.684;2022-07-12T01:54:34;1.93;;;1.83;;
3349;SDS011;1688;51.000;13.684;2022-07-12T01:57:01;3.90;;;2.63;;
3349;SDS011;1688;51.000;13.684;2022-07-12T01:59:30;2.03;;;1.83;;
3349;SDS011;1688;51.000;13.684;2022-07-12T02:01:56;3.60;;;2.10;;
3349;SDS011;1688;51.000;13.684;2022-07-12T02:04:23;4.10;;;2.50;;
3349;SDS011;1688;51.000;13.684;2022-07-12T02:06:49;2.47;;;1.90;;
3349;SDS011;1688;51.000;13.684;2022-07-12T02:09:17;2.30;;;1.80;;
3349;SDS011;1688;51.000;13.684;2022-07-12T02:11:43;2.20;;;2.00;;
3349;SDS011;1688;51.000;13.684;2022-07-12T02:14:10;3.10;;;2.00;;
3349;SDS011;1688;51.000;13.684;2022-07-12T02:16:37;2.67;;;2.10;;
3349;SDS011;1688;51.000;13.684;2022-07-12T02:19:04;3.60;;;2.47;;
3349;SDS011;1688;51.000;13.684;2022-07-12T02:21:31;2.43;;;2.23;;
3349;SDS011;1688;51.000;13.684;2022-07-12T02:23:57;2.60;;;2.13;;
3349;SDS011;1688;51.000;13.684;2022-07-12T02:26:23;3.27;;;1.97;;
3349;SDS011;1688;51.000;13.684;2022-07-12T02:28:49;4.00;;;2.30;;
3349;SDS011;1688;51.000;13.684;2022-07-12T02:31:15;2.50;;;2.20;;
3349;SDS011;1688;51.000;13.684;2022-07-12T02:33:41;4.93;;;3.37;;
3349;SDS011;1688;51.000;13.684;2022-07-12T02:36:07;3.07;;;2.30;;
3349;SDS011;1688;51.000;13.684;2022-07-12T02:38:32;4.10;;;2.53;;
3349;SDS011;1688;51.000;13.684;2022-07-12T02:40:59;3.17;;;2.20;;
3349;SDS011;1688;51.000;13.684;2022-07-12T02:43:26;3.27;;;2.10;;
3349;SDS011;1688;51.000;13.684;2022-07-12T02:46:06;3.00;;;2.63;;
3349;SDS011;1688;51.000;13.684;2022-07-12T02:48:35;3.50;;;2.67;;
3349;SDS011;1688;51.000;13.684;2022-07-12T02:51:02;4.07;;;3.20;;
3349;SDS011;1688;51.000;13.684;2022-07-12T02:53:28;4.00;;;2.53;;
3349;SDS011;1688;51.000;13.684;2022-07-12T02:55:54;4.27;;;3.20;;
3349;SDS011;1688;51.000;13.684;2022-07-12T02:58:20;5.40;;;3.17;;
3349;SDS011;1688;51.000;13.684;2022-07-12T03:00:46;4.23;;;3.10;;
3349;SDS011;1688;51.000;13.684;2022-07-12T03:03:12;2.30;;;2.10;;
3349;SDS011;1688;51.000;13.684;2022-07-12T03:05:39;4.33;;;3.07;;
3349;SDS011;1688;51.000;13.684;2022-07-12T03:08:06;3.53;;;2.43;;
3349;SDS011;1688;51.000;13.684;2022-07-12T03:10:33;5.37;;;3.13;;
3349;SDS011;1688;51.000;13.684;2022-07-12T03:12:59;2.23;;;2.00;;
3349;SDS011;1688;51.000;13.684;2022-07-12T03:15:25;3.20;;;2.70;;
3349;SDS011;1688;51.000;13.684;2022-07-12T03:17:53;4.30;;;2.63;;
3349;SDS011;1688;51.000;13.684;2022-07-12T03:20:19;7.40;;;3.27;;
3349;SDS011;1688;51.000;13.684;2022-07-12T03:22:45;3.30;;;2.47;;
3349;SDS011;1688;51.000;13.684;2022-07-12T03:25:14;4.17;;;2.87;;
3349;SDS011;1688;51.000;13.684;2022-07-12T03:27:40;3.70;;;2.80;;
3349;SDS011;1688;51.000;13.684;2022-07-12T03:30:06;4.17;;;2.77;;
3349;SDS011;1688;51.000;13.684;2022-07-12T03:32:33;7.40;;;4.07;;
3349;SDS011;1688;51.000;13.684;2022-07-12T03:34:59;3.70;;;2.60;;
3349;SDS011;1688;51.000;13.684;2022-07-12T03:37:26;3.20;;;2.67;;
3349;SDS011;1688;51.000;13.684;2022-07-12T03:39:52;5.60;;;4.27;;
3349;SDS011;1688;51.000;13.684;2022-07-12T03:42:21;4.07;;;3.10;;
3349;SDS011;1688;51.000;13.684;2022-07-12T03:44:47;4.70;;;3.20;;
3349;SDS011;1688;51.000;13.684;2022-07-12T03:47:13;5.43;;;3.10;;
3349;SDS011;1688;51.000;13.684;2022-07-12T03:49:39;6.47;;;3.73;;
3349;SDS011;1688;51.000;13.684;2022-07-12T03:52:05;5.87;;;4.10;;
3349;SDS011;1688;51.000;13.684;2022-07-12T03:54:32;5.43;;;3.47;;
3349;SDS011;1688;51.000;13.684;2022-07-12T03:56:57;6.80;;;3.43;;
3349;SDS011;1688;51.000;13.684;2022-07-12T03:59:39;10.93;;;4.03;;
3349;SDS011;1688;51.000;13.684;2022-07-12T04:02:08;5.93;;;3.47;;
3349;SDS011;1688;51.000;13.684;2022-07-12T04:04:34;3.30;;;2.63;;
3349;SDS011;1688;51.000;13.684;2022-07-12T04:07:00;9.20;;;4.33;;
3349;SDS011;1688;51.000;13.684;2022-07-12T04:09:26;4.63;;;4.23;;
3349;SDS011;1688;51.000;13.684;2022-07-12T04:11:51;6.13;;;4.07;;
3349;SDS011;1688;51.000;13.684;2022-07-12T04:14:17;5.30;;;4.73;;
3349;SDS011;1688;51.000;13.684;2022-07-12T04:16:43;4.43;;;3.93;;
3349;SDS011;1688;51.000;13.684;2022-07-12T04:19:09;4.97;;;3.23;;
3349;SDS011;1688;51.000;13.684;2022-07-12T04:21:36;4.37;;;3.03;;
3349;SDS011;1688;51.000;13.684;2022-07-12T04:24:02;6.93;;;5.03;;
3349;SDS011;1688;51.000;13.684;2022-07-12T04:26:29;7.23;;;4.33;;
3349;SDS011;1688;51.000;13.684;2022-07-12T04:28:54;7.00;;;4.00;;
3349;SDS011;1688;51.000;13.684;2022-07-12T04:31:20;4.80;;;3.20;;
3349;SDS011;1688;51.000;13.684;2022-07-12T04:33:46;3.43;;;3.13;;
3349;SDS011;1688;51.000;13.684;2022-07-12T04:36:12;5.10;;;4.57;;
3349;SDS011;1688;51.000;13.684;2022-07-12T04:38:38;5.50;;;3.40;;
3349;SDS011;1688;51.000;13.684;2022-07-12T04:41:04;5.23;;;3.10;;
3349;SDS011;1688;51.000;13.684;2022-07-12T04:43:31;7.30;;;4.10;;
3349;SDS011;1688;51.000;13.684;2022-07-12T04:46:04;4.50;;;3.43;;
3349;SDS011;1688;51.000;13.684;2022-07-12T04:48:32;4.40;;;2.97;;
3349;SDS011;1688;51.000;13.684;2022-07-12T04:50:58;6.90;;;3.73;;
3349;SDS011;1688;51.000;13.684;2022-07-12T04:53:24;7.20;;;4.67;;
3349;SDS011;1688;51.000;13.684;2022-07-12T04:55:53;4.67;;;3.27;;
3349;SDS011;1688;51.000;13.684;2022-07-12T04:58:20;5.60;;;4.23;;
3349;SDS011;1688;51.000;13.684;2022-07-12T05:00:46;7.30;;;5.37;;
3349;SDS011;1688;51.000;13.684;2022-07-12T05:03:12;4.67;;;4.20;;
3349;SDS011;1688;51.000;13.684;2022-07-12T05:05:38;6.30;;;4.80;;
3349;SDS011;1688;51.000;13.684;2022-07-12T05:08:04;6.83;;;4.70;;
3349;SDS011;1688;51.000;13.684;2022-07-12T05:10:30;8.57;;;4.63;;
3349;SDS011;1688;51.000;13.684;2022-07-12T05:12:56;6.70;;;4.30;;
3349;SDS011;1688;51.000;13.684;2022-07-12T05:15:22;6.07;;;4.87;;
3349;SDS011;1688;51.000;13.684;2022-07-12T05:17:48;7.23;;;4.40;;
3349;SDS011;1688;51.000;13.684;2022-07-12T05:20:13;4.83;;;3.60;;
3349;SDS011;1688;51.000;13.684;2022-07-12T05:22:39;6.43;;;4.80;;
3349;SDS011;1688;51.000;13.684;2022-07-12T05:25:08;6.57;;;4.03;;
3349;SDS011;1688;51.000;13.684;2022-07-12T05:27:35;10.67;;;4.50;;
3349;SDS011;1688;51.000;13.684;2022-07-12T05:30:01;5.80;;;4.60;;
3349;SDS011;1688;51.000;13.684;2022-07-12T05:32:28;5.40;;;4.33;;
3349;SDS011;1688;51.000;13.684;2022-07-12T05:34:53;6.80;;;4.60;;
3349;SDS011;1688;51.000;13.684;2022-07-12T05:37:19;6.80;;;4.57;;
3349;SDS011;1688;51.000;13.684;2022-07-12T05:39:45;8.43;;;4.57;;
3349;SDS011;1688;51.000;13.684;2022-07-12T05:42:11;8.23;;;5.00;;
3349;SDS011;1688;51.000;13.684;2022-07-12T05:44:37;6.40;;;5.33;;
3349;SDS011;1688;51.000;13.684;2022-07-12T05:47:02;6.10;;;5.37;;
3349;SDS011;1688;51.000;13.684;2022-07-12T05:49:28;5.30;;;4.03;;
3349;SDS011;1688;51.000;13.684;2022-07-12T05:51:54;5.53;;;4.50;;
3349;SDS011;1688;51.000;13.684;2022-07-12T05:54:39;6.03;;;4.80;;
3349;SDS011;1688;51.000;13.684;2022-07-12T05:57:04;8.50;;;5.00;;
3349;SDS011;1688;51.000;13.684;2022-07-12T05:59:30;6.70;;;5.97;;
3349;SDS011;1688;51.000;13.684;2022-07-12T06:01:56;5.40;;;4.53;;
3349;SDS011;1688;51.000;13.684;2022-07-12T06:04:22;8.37;;;5.30;;
3349;SDS011;1688;51.000;13.684;2022-07-12T06:06:48;6.53;;;4.70;;
3349;SDS011;1688;51.000;13.684;2022-07-12T06:09:14;4.90;;;4.43;;
3349;SDS011;1688;51.000;13.684;2022-07-12T06:11:39;4.50;;;3.97;;
3349;SDS011;1688;51.000;13.684;2022-07-12T06:14:05;8.97;;;4.83;;
3349;SDS011;1688;51.000;13.684;2022-07-12T06:16:31;4.00;;;3.53;;
3349;SDS011;1688;51.000;13.684;2022-07-12T06:18:56;4.60;;;4.20;;
3349;SDS011;1688;51.000;13.684;2022-07-12T06:21:22;5.00;;;4.10;;
3349;SDS011;1688;51.000;13.684;2022-07-12T06:23:48;6.10;;;4.20;;
3349;SDS011;1688;51.000;13.684;2022-07-12T06:26:14;5.07;;;4.50;;
3349;SDS011;1688;51.000;13.684;2022-07-12T06:28:39;8.00;;;4.80;;
3349;SDS011;1688;51.000;13.684;2022-07-12T06:31:06;5.90;;;4.40;;
3349;SDS011;1688;51.000;13.684;2022-07-12T06:33:32;5.83;;;3.93;;
3349;SDS011;1688;51.000;13.684;2022-07-12T06:35:57;7.80;;;4.80;;
3349;SDS011;1688;51.000;13.684;2022-07-12T06:38:23;5.17;;;4.77;;
3349;SDS011;1688;51.000;13.684;2022-07-12T06:40:49;8.03;;;5.60;;
3349;SDS011;1688;51.000;13.684;2022-07-12T06:43:15;6.20;;;3.73;;
3349;SDS011;1688;51.000;13.684;2022-07-12T06:45:40;7.97;;;3.33;;
3349;SDS011;1688;51.000;13.684;2022-07-12T06:48:09;4.57;;;4.13;;
3349;SDS011;1688;51.000;13.684;2022-07-12T06:50:35;8.80;;;4.40;;
3349;SDS011;1688;51.000;13.684;2022-07-12T06:53:01;5.03;;;4.00;;
3349;SDS011;1688;51.000;13.684;2022-07-12T06:55:27;4.97;;;4.20;;
3349;SDS011;1688;51.000;13.684;2022-07-12T06:57:52;3.57;;;3.23;;
3349;SDS011;1688;51.000;13.684;2022-07-12T07:00:18;9.23;;;4.33;;
3349;SDS011;1688;51.000;13.684;2022-07-12T07:02:44;6.50;;;3.73;;
3349;SDS011;1688;51.000;13.684;2022-07-12T07:05:10;4.63;;;3.80;;
3349;SDS011;1688;51.000;13.684;2022-07-12T07:07:36;5.83;;;3.20;;
3349;SDS011;1688;51.000;13.684;2022-07-12T07:10:02;5.57;;;4.37;;
3349;SDS011;1688;51.000;13.684;2022-07-12T07:12:28;3.90;;;3.13;;
3349;SDS011;1688;51.000;13.684;2022-07-12T07:14:54;3.20;;;2.87;;
3349;SDS011;1688;51.000;13.684;2022-07-12T07:17:21;4.83;;;4.33;;
3349;SDS011;1688;51.000;13.684;2022-07-12T07:19:47;5.07;;;4.53;;
3349;SDS011;1688;51.000;13.684;2022-07-12T07:22:13;4.07;;;3.67;;
3349;SDS011;1688;51.000;13.684;2022-07-12T07:24:39;4.20;;;3.80;;
3349;SDS011;1688;51.000;13.684;2022-07-12T07:27:05;3.77;;;2.80;;
3349;SDS011;1688;51.000;13.684;2022-07-12T07:29:31;2.73;;;2.53;;
3349;SDS011;1688;51.000;13.684;2022-07-12T07:32:15;3.90;;;3.20;;
3349;SDS011;1688;51.000;13.684;2022-07-12T07:34:41;3.73;;;2.93;;
3349;SDS011;1688;51.000;13.684;2022-07-12T07:37:07;4.60;;;3.27;;
3349;SDS011;1688;51.000;13.684;2022-07-12T07:39:34;5.13;;;3.37;;
3349;SDS011;1688;51.000;13.684;2022-07-12T07:42:00;2.93;;;2.73;;
3349;SDS011;1688;51.000;13.684;2022-07-12T07:44:26;2.53;;;2.23;;
3349;SDS011;1688;51.000;13.684;2022-07-12T07:46:53;3.60;;;2.80;;
3349;SDS011;1688;51.000;13.684;2022-07-12T07:49:18;3.30;;;3.00;;
3349;SDS011;1688;51.000;13.684;2022-07-12T07:51:45;7.53;;;2.93;;
3349;SDS011;1688;51.000;13.684;2022-07-12T07:54:11;9.63;;;3.20;;
3349;SDS011;1688;51.000;13.684;2022-07-12T07:56:37;8.83;;;2.93;;
3349;SDS011;1688;51.000;13.684;2022-07-12T07:59:02;2.77;;;2.57;;
3349;SDS011;1688;51.000;13.684;2022-07-12T08:01:28;3.13;;;2.73;;
3349;SDS011;1688;51.000;13.684;2022-07-12T08:04:14;2.90;;;2.53;;
3349;SDS011;1688;51.000;13.684;2022-07-12T08:06:41;2.47;;;2.30;;
3349;SDS011;1688;51.000;13.684;2022-07-12T08:09:07;4.73;;;2.43;;
3349;SDS011;1688;51.000;13.684;2022-07-12T08:11:34;2.23;;;2.03;;
3349;SDS011;1688;51.000;13.684;2022-07-12T08:14:01;2.20;;;1.60;;
3349;SDS011;1688;51.000;13.684;2022-07-12T08:16:28;2.13;;;1.93;;
3349;SDS011;1688;51.000;13.684;2022-07-12T08:18:54;4.03;;;2.20;;
3349;SDS011;1688;51.000;13.684;2022-07-12T08:21:20;2.40;;;1.90;;
3349;SDS011;1688;51.000;13.684;2022-07-12T08:23:46;1.90;;;1.57;;
3349;SDS011;1688;51.000;13.684;2022-07-12T08:26:13;3.13;;;2.30;;
3349;SDS011;1688;51.000;13.684;2022-07-12T08:28:39;1.40;;;1.30;;
3349;SDS011;1688;51.000;13.684;2022-07-12T08:31:05;5.60;;;2.03;;
3349;SDS011;1688;51.000;13.684;2022-07-12T08:33:31;3.07;;;1.40;;
3349;SDS011;1688;51.000;13.684;2022-07-12T08:35:57;2.60;;;1.40;;
3349;SDS011;1688;51.000;13.684;2022-07-12T08:38:23;2.60;;;2.10;;
3349;SDS011;1688;51.000;13.684;2022-07-12T08:40:49;1.97;;;1.80;;
3349;SDS011;1688;51.000;13.684;2022-07-12T08:43:14;2.67;;;1.97;;
3349;SDS011;1688;51.000;13.684;2022-07-12T08:45:41;5.50;;;3.37;;
3349;SDS011;1688;51.000;13.684;2022-07-12T08:48:07;1.80;;;1.70;;
3349;SDS011;1688;51.000;13.684;2022-07-12T08:50:34;4.70;;;1.90;;
3349;SDS011;1688;51.000;13.684;2022-07-12T08:53:00;1.83;;;1.50;;
3349;SDS011;1688;51.000;13.684;2022-07-12T08:55:33;2.10;;;1.57;;
3349;SDS011;1688;51.000;13.684;2022-07-12T08:58:00;1.60;;;1.27;;
3349;SDS011;1688;51.000;13.684;2022-07-12T09:00:31;9.47;;;1.70;;
3349;SDS011;1688;51.000;13.684;2022-07-12T09:02:58;1.40;;;1.30;;
3349;SDS011;1688;51.000;13.684;2022-07-12T09:05:26;2.60;;;1.63;;
3349;SDS011;1688;51.000;13.684;2022-07-12T09:08:04;3.30;;;1.50;;
3349;SDS011;1688;51.000;13.684;2022-07-12T09:10:31;2.27;;;1.77;;
3349;SDS011;1688;51.000;13.684;2022-07-12T09:12:58;2.30;;;1.53;;
3349;SDS011;1688;51.000;13.684;2022-07-12T09:15:24;1.57;;;1.47;;
3349;SDS011;1688;51.000;13.684;2022-07-12T09:20:50;2.80;;;0.90;;
3349;SDS011;1688;51.000;13.684;2022-07-12T09:23:17;0.80;;;0.73;;
3349;SDS011;1688;51.000;13.684;2022-07-12T09:25:44;5.63;;;1.07;;
3349;SDS011;1688;51.000;13.684;2022-07-12T09:28:10;4.00;;;0.93;;
3349;SDS011;1688;51.000;13.684;2022-07-12T09:30:37;4.43;;;0.93;;
3349;SDS011;1688;51.000;13.684;2022-07-12T09:33:17;4.10;;;1.47;;
3349;SDS011;1688;51.000;13.684;2022-07-12T09:36:02;19.33;;;1.60;;
3349;SDS011;1688;51.000;13.684;2022-07-12T09:38:35;1.00;;;0.90;;
3349;SDS011;1688;51.000;13.684;2022-07-12T09:41:21;0.80;;;0.80;;
3349;SDS011;1688;51.000;13.684;2022-07-12T09:43:48;1.37;;;0.90;;
3349;SDS011;1688;51.000;13.684;2022-07-12T09:46:15;2.50;;;2.30;;
3349;SDS011;1688;51.000;13.684;2022-07-12T09:48:42;0.70;;;0.70;;
3349;SDS011;1688;51.000;13.684;2022-07-12T09:51:10;1.33;;;1.10;;
3349;SDS011;1688;51.000;13.684;2022-07-12T09:53:46;2.43;;;1.10;;
3349;SDS011;1688;51.000;13.684;2022-07-12T09:56:14;1.40;;;1.10;;
3349;SDS011;1688;51.000;13.684;2022-07-12T09:58:47;0.90;;;0.80;;
3349;SDS011;1688;51.000;13.684;2022-07-12T10:01:16;4.70;;;1.30;;
3349;SDS011;1688;51.000;13.684;2022-07-12T10:03:42;0.90;;;0.90;;
3349;SDS011;1688;51.000;13.684;2022-07-12T10:06:09;5.00;;;1.00;;
3349;SDS011;1688;51.000;13.684;2022-07-12T10:08:38;0.90;;;0.80;;
3349;SDS011;1688;51.000;13.684;2022-07-12T10:11:05;1.63;;;1.00;;
3349;SDS011;1688;51.000;13.684;2022-07-12T10:13:32;0.97;;;0.80;;
3349;SDS011;1688;51.000;13.684;2022-07-12T10:16:02;1.10;;;0.77;;
3349;SDS011;1688;51.000;13.684;2022-07-12T10:18:28;2.50;;;1.47;;
3349;SDS011;1688;51.000;13.684;2022-07-12T10:20:55;7.00;;;0.90;;
3349;SDS011;1688;51.000;13.684;2022-07-12T10:23:34;1.77;;;1.33;;
3349;SDS011;1688;51.000;13.684;2022-07-12T10:31:27;2.93;;;0.67;;
3349;SDS011;1688;51.000;13.684;2022-07-12T10:34:14;0.83;;;0.83;;
3349;SDS011;1688;51.000;13.684;2022-07-12T10:39:24;0.70;;;0.70;;
3349;SDS011;1688;51.000;13.684;2022-07-12T10:44:39;1.70;;;0.90;;
3349;SDS011;1688;51.000;13.684;2022-07-12T10:47:08;0.70;;;0.70;;
3349;SDS011;1688;51.000;13.684;2022-07-12T10:49:35;1.07;;;0.90;;
3349;SDS011;1688;51.000;13.684;2022-07-12T10:54:39;1.30;;;1.00;;
3349;SDS011;1688;51.000;13.684;2022-07-12T10:57:06;0.70;;;0.70;;
3349;SDS011;1688;51.000;13.684;2022-07-12T10:59:34;5.13;;;0.70;;
3349;SDS011;1688;51.000;13.684;2022-07-12T11:02:02;0.70;;;0.70;;
3349;SDS011;1688;51.000;13.684;2022-07-12T11:04:28;0.70;;;0.70;;
3349;SDS011;1688;51.000;13.684;2022-07-12T11:06:54;1.10;;;0.83;;
3349;SDS011;1688;51.000;13.684;2022-07-12T11:09:22;0.70;;;0.70;;
3349;SDS011;1688;51.000;13.684;2022-07-12T11:11:50;0.80;;;0.70;;
3349;SDS011;1688;51.000;13.684;2022-07-12T11:14:23;4.00;;;0.80;;
3349;SDS011;1688;51.000;13.684;2022-07-12T11:16:51;0.80;;;0.77;;
3349;SDS011;1688;51.000;13.684;2022-07-12T11:19:21;0.80;;;0.60;;
3349;SDS011;1688;51.000;13.684;2022-07-12T11:21:48;14.30;;;0.90;;
3349;SDS011;1688;51.000;13.684;2022-07-12T11:24:31;1.30;;;0.90;;
3349;SDS011;1688;51.000;13.684;2022-07-12T11:26:58;2.10;;;0.70;;
3349;SDS011;1688;51.000;13.684;2022-07-12T11:29:24;0.93;;;0.83;;
3349;SDS011;1688;51.000;13.684;2022-07-12T11:31:58;0.80;;;0.70;;
3349;SDS011;1688;51.000;13.684;2022-07-12T11:34:26;0.80;;;0.77;;
3349;SDS011;1688;51.000;13.684;2022-07-12T11:36:54;0.90;;;0.60;;
3349;SDS011;1688;51.000;13.684;2022-07-12T11:42:00;1.53;;;1.43;;
3349;SDS011;1688;51.000;13.684;2022-07-12T11:44:40;0.80;;;0.70;;
3349;SDS011;1688;51.000;13.684;2022-07-12T11:47:07;1.97;;;0.80;;
3349;SDS011;1688;51.000;13.684;2022-07-12T11:49:34;0.70;;;0.67;;
3349;SDS011;1688;51.000;13.684;2022-07-12T11:51:59;0.80;;;0.80;;
3349;SDS011;1688;51.000;13.684;2022-07-12T11:54:25;0.80;;;0.63;;
3349;SDS011;1688;51.000;13.684;2022-07-12T11:57:08;1.90;;;1.57;;
3349;SDS011;1688;51.000;13.684;2022-07-12T11:59:35;1.10;;;0.90;;
3349;SDS011;1688;51.000;13.684;2022-07-12T12:02:05;1.03;;;0.93;;
3349;SDS011;1688;51.000;13.684;2022-07-12T12:04:34;1.20;;;0.87;;
3349;SDS011;1688;51.000;13.684;2022-07-12T12:07:13;0.80;;;0.60;;
3349;SDS011;1688;51.000;13.684;2022-07-12T12:12:36;0.93;;;0.93;;
3349;SDS011;1688;51.000;13.684;2022-07-12T12:15:11;0.60;;;0.60;;
3349;SDS011;1688;51.000;13.684;2022-07-12T12:20:19;1.03;;;0.70;;
3349;SDS011;1688;51.000;13.684;2022-07-12T12:22:47;0.70;;;0.70;;
3349;SDS011;1688;51.000;13.684;2022-07-12T12:25:22;0.70;;;0.60;;
3349;SDS011;1688;51.000;13.684;2022-07-12T12:27:51;0.60;;;0.60;;
3349;SDS011;1688;51.000;13.684;2022-07-12T12:30:28;1.10;;;0.60;;
3349;SDS011;1688;51.000;13.684;2022-07-12T12:32:56;1.03;;;0.93;;
3349;SDS011;1688;51.000;13.684;2022-07-12T12:35:29;1.43;;;0.80;;
3349;SDS011;1688;51.000;13.684;2022-07-12T12:38:00;1.77;;;0.90;;
3349;SDS011;1688;51.000;13.684;2022-07-12T12:40:28;1.57;;;0.70;;
3349;SDS011;1688;51.000;13.684;2022-07-12T12:45:55;1.17;;;0.80;;
3349;SDS011;1688;51.000;13.684;2022-07-12T12:48:22;5.20;;;1.20;;
3349;SDS011;1688;51.000;13.684;2022-07-12T12:50:50;0.90;;;0.70;;
3349;SDS011;1688;51.000;13.684;2022-07-12T12:53:18;2.17;;;1.43;;
3349;SDS011;1688;51.000;13.684;2022-07-12T12:55:44;0.60;;;0.60;;
3349;SDS011;1688;51.000;13.684;2022-07-12T12:58:13;5.30;;;0.70;;
3349;SDS011;1688;51.000;13.684;2022-07-12T13:00:41;1.10;;;0.80;;
3349;SDS011;1688;51.000;13.684;2022-07-12T13:03:12;0.70;;;0.60;;
3349;SDS011;1688;51.000;13.684;2022-07-12T13:05:40;1.57;;;1.03;;
3349;SDS011;1688;51.000;13.684;2022-07-12T13:08:08;0.80;;;0.70;;
3349;SDS011;1688;51.000;13.684;2022-07-12T13:10:35;1.00;;;1.00;;
3349;SDS011;1688;51.000;13.684;2022-07-12T13:13:02;1.90;;;0.87;;
3349;SDS011;1688;51.000;13.684;2022-07-12T13:15:29;1.10;;;0.97;;
3349;SDS011;1688;51.000;13.684;2022-07-12T13:17:55;1.10;;;0.70;;
3349;SDS011;1688;51.000;13.684;2022-07-12T13:20:22;0.80;;;0.63;;
3349;SDS011;1688;51.000;13.684;2022-07-12T13:22:49;2.90;;;0.90;;
3349;SDS011;1688;51.000;13.684;2022-07-12T13:25:15;0.70;;;0.70;;
3349;SDS011;1688;51.000;13.684;2022-07-12T13:27:41;2.47;;;0.80;;
3349;SDS011;1688;51.000;13.684;2022-07-12T13:30:12;1.10;;;0.80;;
3349;SDS011;1688;51.000;13.684;2022-07-12T13:32:39;1.70;;;0.70;;
3349;SDS011;1688;51.000;13.684;2022-07-12T13:35:06;0.70;;;0.70;;
3349;SDS011;1688;51.000;13.684;2022-07-12T13:37:34;2.27;;;0.90;;
3349;SDS011;1688;51.000;13.684;2022-07-12T13:40:00;0.80;;;0.80;;
3349;SDS011;1688;51.000;13.684;2022-07-12T13:42:48;1.63;;;0.70;;
3349;SDS011;1688;51.000;13.684;2022-07-12T13:45:19;1.00;;;0.70;;
3349;SDS011;1688;51.000;13.684;2022-07-12T13:47:46;1.00;;;0.90;;
3349;SDS011;1688;51.000;13.684;2022-07-12T13:50:14;12.13;;;2.03;;
3349;SDS011;1688;51.000;13.684;2022-07-12T13:52:41;3.40;;;1.00;;
3349;SDS011;1688;51.000;13.684;2022-07-12T13:55:09;2.50;;;0.90;;
3349;SDS011;1688;51.000;13.684;2022-07-12T13:57:36;0.87;;;0.87;;
3349;SDS011;1688;51.000;13.684;2022-07-12T14:00:04;1.50;;;0.80;;
3349;SDS011;1688;51.000;13.684;2022-07-12T14:02:35;1.23;;;1.10;;
3349;SDS011;1688;51.000;13.684;2022-07-12T14:05:02;3.43;;;1.23;;
3349;SDS011;1688;51.000;13.684;2022-07-12T14:07:29;9.10;;;1.23;;
3349;SDS011;1688;51.000;13.684;2022-07-12T14:09:55;0.90;;;0.90;;
3349;SDS011;1688;51.000;13.684;2022-07-12T14:12:22;3.53;;;0.87;;
3349;SDS011;1688;51.000;13.684;2022-07-12T14:14:47;1.17;;;0.80;;
3349;SDS011;1688;51.000;13.684;2022-07-12T14:20:03;1.40;;;1.23;;
3349;SDS011;1688;51.000;13.684;2022-07-12T14:22:29;0.80;;;0.80;;
3349;SDS011;1688;51.000;13.684;2022-07-12T14:24:56;1.00;;;0.90;;
3349;SDS011;1688;51.000;13.684;2022-07-12T14:27:22;1.07;;;1.00;;
3349;SDS011;1688;51.000;13.684;2022-07-12T14:29:49;3.63;;;1.10;;
3349;SDS011;1688;51.000;13.684;2022-07-12T14:32:17;1.20;;;1.10;;
3349;SDS011;1688;51.000;13.684;2022-07-12T14:34:43;2.30;;;1.27;;
3349;SDS011;1688;51.000;13.684;2022-07-12T14:37:11;3.50;;;0.97;;
3349;SDS011;1688;51.000;13.684;2022-07-12T14:39:37;1.13;;;0.90;;
3349;SDS011;1688;51.000;13.684;2022-07-12T14:42:03;1.60;;;1.50;;
3349;SDS011;1688;51.000;13.684;2022-07-12T14:44:29;6.87;;;1.00;;
3349;SDS011;1688;51.000;13.684;2022-07-12T14:46:56;0.87;;;0.87;;
3349;SDS011;1688;51.000;13.684;2022-07-12T14:49:21;1.00;;;0.90;;
3349;SDS011;1688;51.000;13.684;2022-07-12T14:51:47;3.23;;;0.90;;
3349;SDS011;1688;51.000;13.684;2022-07-12T14:54:13;1.00;;;0.80;;
3349;SDS011;1688;51.000;13.684;2022-07-12T14:56:40;1.10;;;1.00;;
3349;SDS011;1688;51.000;13.684;2022-07-12T14:59:07;2.73;;;1.20;;
3349;SDS011;1688;51.000;13.684;2022-07-12T15:01:33;1.67;;;0.70;;
3349;SDS011;1688;51.000;13.684;2022-07-12T15:03:58;5.33;;;1.40;;
3349;SDS011;1688;51.000;13.684;2022-07-12T15:06:24;0.83;;;0.83;;
3349;SDS011;1688;51.000;13.684;2022-07-12T15:08:52;1.83;;;0.90;;
3349;SDS011;1688;51.000;13.684;2022-07-12T15:11:19;2.00;;;1.03;;
3349;SDS011;1688;51.000;13.684;2022-07-12T15:13:45;0.97;;;0.87;;
3349;SDS011;1688;51.000;13.684;2022-07-12T15:16:16;1.00;;;0.80;;
3349;SDS011;1688;51.000;13.684;2022-07-12T15:18:42;1.87;;;0.80;;
3349;SDS011;1688;51.000;13.684;2022-07-12T15:21:08;0.70;;;0.67;;
3349;SDS011;1688;51.000;13.684;2022-07-12T15:23:34;1.00;;;0.90;;
3349;SDS011;1688;51.000;13.684;2022-07-12T15:26:00;1.20;;;1.10;;
3349;SDS011;1688;51.000;13.684;2022-07-12T15:28:26;5.23;;;0.80;;
3349;SDS011;1688;51.000;13.684;2022-07-12T15:30:54;1.17;;;0.90;;
3349;SDS011;1688;51.000;13.684;2022-07-12T15:33:20;1.43;;;0.90;;